sensor_id;sensor_type;location;lat;lon;timestamp;temperature;humidity
12013;DHT22;6065;48.138;16.402;2023-05-29T00:01:44;17.50;98.40
12013;DHT22;6065;48.138;16.402;2023-05-29T00:04:13;17.40;98.50
12013;DHT22;6065;48.138;16.402;2023-05-29T00:06:41;17.40;98.50
12013;DHT22;6065;48.138;16.402;2023-05-29T00:09:08;17.40;98.50
12013;DHT22;6065;48.138;16.402;2023-05-29T00:11:34;17.40;98.50
12013;DHT22;6065;48.138;16.402;2023-05-29T00:14:01;17.30;98.50
12013;DHT22;6065;48.138;16.402;2023-05-29T00:16:28;17.30;98.60
12013;DHT22;6065;48.138;16.402;2023-05-29T00:18:55;17.30;98.60
12013;DHT22;6065;48.138;16.402;2023-05-29T00:21:23;17.20;98.60
12013;DHT22;6065;48.138;16.402;2023-05-29T00:23:51;17.10;98.60
12013;DHT22;6065;48.138;16.402;2023-05-29T00:26:18;17.10;98.70
12013;DHT22;6065;48.138;16.402;2023-05-29T00:28:45;17.10;98.70
12013;DHT22;6065;48.138;16.402;2023-05-29T00:31:11;17.00;98.80
12013;DHT22;6065;48.138;16.402;2023-05-29T00:33:38;17.10;98.90
12013;DHT22;6065;48.138;16.402;2023-05-29T00:36:05;17.10;98.80
12013;DHT22;6065;48.138;16.402;2023-05-29T00:38:33;17.10;98.90
12013;DHT22;6065;48.138;16.402;2023-05-29T00:41:01;17.00;98.80
12013;DHT22;6065;48.138;16.402;2023-05-29T00:43:28;17.00;98.70
12013;DHT22;6065;48.138;16.402;2023-05-29T00:45:54;17.00;98.70
12013;DHT22;6065;48.138;16.402;2023-05-29T00:48:21;17.00;98.70
12013;DHT22;6065;48.138;16.402;2023-05-29T00:50:48;16.90;98.80
12013;DHT22;6065;48.138;16.402;2023-05-29T00:53:15;16.90;98.80
12013;DHT22;6065;48.138;16.402;2023-05-29T00:55:42;16.80;98.90
12013;DHT22;6065;48.138;16.402;2023-05-29T00:58:10;16.80;99.00
12013;DHT22;6065;48.138;16.402;2023-05-29T01:00:36;16.70;99.00
12013;DHT22;6065;48.138;16.402;2023-05-29T01:03:04;16.70;99.00
12013;DHT22;6065;48.138;16.402;2023-05-29T01:05:32;16.60;99.00
12013;DHT22;6065;48.138;16.402;2023-05-29T01:07:59;16.60;99.00
12013;DHT22;6065;48.138;16.402;2023-05-29T01:10:25;16.60;98.90
12013;DHT22;6065;48.138;16.402;2023-05-29T01:12:55;16.60;98.90
12013;DHT22;6065;48.138;16.402;2023-05-29T01:15:30;16.60;98.90
12013;DHT22;6065;48.138;16.402;2023-05-29T01:18:04;16.60;98.90
12013;DHT22;6065;48.138;16.402;2023-05-29T01:20:35;16.50;98.90
12013;DHT22;6065;48.138;16.402;2023-05-29T01:23:06;16.40;98.90
12013;DHT22;6065;48.138;16.402;2023-05-29T01:25:41;16.40;98.90
12013;DHT22;6065;48.138;16.402;2023-05-29T01:28:11;16.30;98.90
12013;DHT22;6065;48.138;16.402;2023-05-29T01:30:39;16.20;98.90
12013;DHT22;6065;48.138;16.402;2023-05-29T01:33:07;16.20;99.00
12013;DHT22;6065;48.138;16.402;2023-05-29T01:35:33;16.30;98.80
12013;DHT22;6065;48.138;16.402;2023-05-29T01:38:00;16.30;98.80
12013;DHT22;6065;48.138;16.402;2023-05-29T01:40:27;16.20;98.90
12013;DHT22;6065;48.138;16.402;2023-05-29T01:42:53;16.20;98.90
12013;DHT22;6065;48.138;16.402;2023-05-29T01:45:22;16.20;98.90
12013;DHT22;6065;48.138;16.402;2023-05-29T01:47:48;16.20;98.90
12013;DHT22;6065;48.138;16.402;2023-05-29T01:50:16;16.10;98.90
12013;DHT22;6065;48.138;16.402;2023-05-29T01:52:44;16.10;98.90
12013;DHT22;6065;48.138;16.402;2023-05-29T01:55:11;16.00;98.80
12013;DHT22;6065;48.138;16.402;2023-05-29T01:57:37;16.00;98.90
12013;DHT22;6065;48.138;16.402;2023-05-29T02:00:05;16.00;98.90
12013;DHT22;6065;48.138;16.402;2023-05-29T02:02:37;16.00;98.90
12013;DHT22;6065;48.138;16.402;2023-05-29T02:05:04;16.00;98.80
12013;DHT22;6065;48.138;16.402;2023-05-29T02:07:31;16.00;98.80
12013;DHT22;6065;48.138;16.402;2023-05-29T02:09:58;16.00;98.70
12013;DHT22;6065;48.138;16.402;2023-05-29T02:12:25;16.00;98.70
12013;DHT22;6065;48.138;16.402;2023-05-29T02:14:52;16.00;98.70
12013;DHT22;6065;48.138;16.402;2023-05-29T02:17:19;15.90;98.60
12013;DHT22;6065;48.138;16.402;2023-05-29T02:19:47;15.90;98.60
12013;DHT22;6065;48.138;16.402;2023-05-29T02:22:14;15.90;98.60
12013;DHT22;6065;48.138;16.402;2023-05-29T02:24:40;15.80;98.50
12013;DHT22;6065;48.138;16.402;2023-05-29T02:27:07;15.80;98.40
12013;DHT22;6065;48.138;16.402;2023-05-29T02:29:34;15.70;98.50
12013;DHT22;6065;48.138;16.402;2023-05-29T02:32:01;15.70;98.50
12013;DHT22;6065;48.138;16.402;2023-05-29T02:34:28;15.60;98.60
12013;DHT22;6065;48.138;16.402;2023-05-29T02:36:56;15.60;98.70
12013;DHT22;6065;48.138;16.402;2023-05-29T02:39:23;15.50;98.50
12013;DHT22;6065;48.138;16.402;2023-05-29T02:41:49;15.60;98.50
12013;DHT22;6065;48.138;16.402;2023-05-29T02:44:16;15.70;98.40
12013;DHT22;6065;48.138;16.402;2023-05-29T02:46:43;15.70;98.30
12013;DHT22;6065;48.138;16.402;2023-05-29T02:49:09;15.60;98.30
12013;DHT22;6065;48.138;16.402;2023-05-29T02:51:36;15.60;98.40
12013;DHT22;6065;48.138;16.402;2023-05-29T02:54:05;15.60;98.50
12013;DHT22;6065;48.138;16.402;2023-05-29T02:56:31;15.50;98.40
12013;DHT22;6065;48.138;16.402;2023-05-29T02:58:59;15.50;98.50
12013;DHT22;6065;48.138;16.402;2023-05-29T03:01:27;15.40;98.50
12013;DHT22;6065;48.138;16.402;2023-05-29T03:03:53;15.40;98.60
12013;DHT22;6065;48.138;16.402;2023-05-29T03:06:21;15.40;98.60
12013;DHT22;6065;48.138;16.402;2023-05-29T03:08:48;15.40;98.60
12013;DHT22;6065;48.138;16.402;2023-05-29T03:11:16;15.30;98.50
12013;DHT22;6065;48.138;16.402;2023-05-29T03:13:43;15.30;98.50
12013;DHT22;6065;48.138;16.402;2023-05-29T03:16:12;15.20;98.60
12013;DHT22;6065;48.138;16.402;2023-05-29T03:18:38;15.20;98.70
12013;DHT22;6065;48.138;16.402;2023-05-29T03:21:06;15.20;98.80
12013;DHT22;6065;48.138;16.402;2023-05-29T03:23:33;15.20;98.80
12013;DHT22;6065;48.138;16.402;2023-05-29T03:26:00;15.20;98.70
12013;DHT22;6065;48.138;16.402;2023-05-29T03:28:28;15.30;98.60
12013;DHT22;6065;48.138;16.402;2023-05-29T03:30:54;15.30;98.50
12013;DHT22;6065;48.138;16.402;2023-05-29T03:33:21;15.30;98.40
12013;DHT22;6065;48.138;16.402;2023-05-29T03:35:48;15.30;98.40
12013;DHT22;6065;48.138;16.402;2023-05-29T03:38:14;15.30;98.50
12013;DHT22;6065;48.138;16.402;2023-05-29T03:40:41;15.30;98.40
12013;DHT22;6065;48.138;16.402;2023-05-29T03:43:08;15.20;98.50
12013;DHT22;6065;48.138;16.402;2023-05-29T03:45:36;15.20;98.50
12013;DHT22;6065;48.138;16.402;2023-05-29T03:48:03;15.20;98.60
12013;DHT22;6065;48.138;16.402;2023-05-29T03:50:30;15.20;98.60
12013;DHT22;6065;48.138;16.402;2023-05-29T03:52:56;15.20;98.60
12013;DHT22;6065;48.138;16.402;2023-05-29T03:55:23;15.20;98.60
12013;DHT22;6065;48.138;16.402;2023-05-29T03:57:50;15.20;98.70
12013;DHT22;6065;48.138;16.402;2023-05-29T04:00:16;15.20;98.80
12013;DHT22;6065;48.138;16.402;2023-05-29T04:02:44;15.20;98.90
12013;DHT22;6065;48.138;16.402;2023-05-29T04:05:11;15.20;98.80
12013;DHT22;6065;48.138;16.402;2023-05-29T04:07:38;15.30;98.60
12013;DHT22;6065;48.138;16.402;2023-05-29T04:10:05;15.30;98.40
12013;DHT22;6065;48.138;16.402;2023-05-29T04:12:32;15.30;98.30
12013;DHT22;6065;48.138;16.402;2023-05-29T04:14:59;15.30;98.30
12013;DHT22;6065;48.138;16.402;2023-05-29T04:17:26;15.40;98.50
12013;DHT22;6065;48.138;16.402;2023-05-29T04:19:54;15.40;98.40
12013;DHT22;6065;48.138;16.402;2023-05-29T04:22:21;15.40;98.30
12013;DHT22;6065;48.138;16.402;2023-05-29T04:24:47;15.50;98.20
12013;DHT22;6065;48.138;16.402;2023-05-29T04:27:14;15.50;98.10
12013;DHT22;6065;48.138;16.402;2023-05-29T04:29:41;15.60;97.90
12013;DHT22;6065;48.138;16.402;2023-05-29T04:32:08;15.70;97.60
12013;DHT22;6065;48.138;16.402;2023-05-29T04:34:36;15.80;97.50
12013;DHT22;6065;48.138;16.402;2023-05-29T04:37:05;15.80;97.40
12013;DHT22;6065;48.138;16.402;2023-05-29T04:39:32;15.80;97.40
12013;DHT22;6065;48.138;16.402;2023-05-29T04:41:58;15.80;97.50
12013;DHT22;6065;48.138;16.402;2023-05-29T04:44:26;15.90;97.30
12013;DHT22;6065;48.138;16.402;2023-05-29T04:46:54;15.90;97.20
12013;DHT22;6065;48.138;16.402;2023-05-29T04:49:22;15.90;97.40
12013;DHT22;6065;48.138;16.402;2023-05-29T04:51:49;16.00;97.10
12013;DHT22;6065;48.138;16.402;2023-05-29T04:54:19;16.00;97.20
12013;DHT22;6065;48.138;16.402;2023-05-29T04:56:46;16.00;97.30
12013;DHT22;6065;48.138;16.402;2023-05-29T04:59:12;16.00;97.50
12013;DHT22;6065;48.138;16.402;2023-05-29T05:01:39;16.00;97.40
12013;DHT22;6065;48.138;16.402;2023-05-29T05:04:08;16.10;97.50
12013;DHT22;6065;48.138;16.402;2023-05-29T05:06:35;16.00;97.60
12013;DHT22;6065;48.138;16.402;2023-05-29T05:09:02;16.10;97.60
12013;DHT22;6065;48.138;16.402;2023-05-29T05:11:31;16.10;97.60
12013;DHT22;6065;48.138;16.402;2023-05-29T05:13:57;16.10;97.30
12013;DHT22;6065;48.138;16.402;2023-05-29T05:16:24;16.20;97.30
12013;DHT22;6065;48.138;16.402;2023-05-29T05:18:51;16.30;97.00
12013;DHT22;6065;48.138;16.402;2023-05-29T05:21:18;16.30;96.70
12013;DHT22;6065;48.138;16.402;2023-05-29T05:23:45;16.40;96.60
12013;DHT22;6065;48.138;16.402;2023-05-29T05:26:12;16.50;96.70
12013;DHT22;6065;48.138;16.402;2023-05-29T05:28:40;16.50;96.50
12013;DHT22;6065;48.138;16.402;2023-05-29T05:31:06;16.50;96.20
12013;DHT22;6065;48.138;16.402;2023-05-29T05:33:34;16.60;96.20
12013;DHT22;6065;48.138;16.402;2023-05-29T05:36:00;16.60;96.20
12013;DHT22;6065;48.138;16.402;2023-05-29T05:38:27;16.70;96.20
12013;DHT22;6065;48.138;16.402;2023-05-29T05:40:54;16.70;96.00
12013;DHT22;6065;48.138;16.402;2023-05-29T05:43:21;16.80;96.00
12013;DHT22;6065;48.138;16.402;2023-05-29T05:45:49;16.80;95.90
12013;DHT22;6065;48.138;16.402;2023-05-29T05:48:15;16.80;96.00
12013;DHT22;6065;48.138;16.402;2023-05-29T05:50:42;16.80;96.00
12013;DHT22;6065;48.138;16.402;2023-05-29T05:53:09;16.90;96.10
12013;DHT22;6065;48.138;16.402;2023-05-29T05:55:35;16.90;95.90
12013;DHT22;6065;48.138;16.402;2023-05-29T05:58:02;16.90;95.80
12013;DHT22;6065;48.138;16.402;2023-05-29T06:00:29;17.00;95.60
12013;DHT22;6065;48.138;16.402;2023-05-29T06:02:57;17.00;95.70
12013;DHT22;6065;48.138;16.402;2023-05-29T06:05:24;17.10;95.70
12013;DHT22;6065;48.138;16.402;2023-05-29T06:07:51;17.10;95.60
12013;DHT22;6065;48.138;16.402;2023-05-29T06:10:18;17.20;95.70
12013;DHT22;6065;48.138;16.402;2023-05-29T06:12:45;17.20;95.50
12013;DHT22;6065;48.138;16.402;2023-05-29T06:15:12;17.20;95.50
12013;DHT22;6065;48.138;16.402;2023-05-29T06:17:38;17.30;95.50
12013;DHT22;6065;48.138;16.402;2023-05-29T06:20:07;17.40;95.40
12013;DHT22;6065;48.138;16.402;2023-05-29T06:22:35;17.40;95.50
12013;DHT22;6065;48.138;16.402;2023-05-29T06:25:02;17.50;95.50
12013;DHT22;6065;48.138;16.402;2023-05-29T06:27:29;17.50;95.30
12013;DHT22;6065;48.138;16.402;2023-05-29T06:29:56;17.60;95.20
12013;DHT22;6065;48.138;16.402;2023-05-29T06:32:22;17.60;95.00
12013;DHT22;6065;48.138;16.402;2023-05-29T06:34:49;17.70;94.90
12013;DHT22;6065;48.138;16.402;2023-05-29T06:37:17;17.70;94.90
12013;DHT22;6065;48.138;16.402;2023-05-29T06:39:44;17.80;95.00
12013;DHT22;6065;48.138;16.402;2023-05-29T06:42:11;17.80;95.00
12013;DHT22;6065;48.138;16.402;2023-05-29T06:44:38;17.90;95.10
12013;DHT22;6065;48.138;16.402;2023-05-29T06:47:05;17.90;95.00
12013;DHT22;6065;48.138;16.402;2023-05-29T06:49:31;17.90;94.90
12013;DHT22;6065;48.138;16.402;2023-05-29T06:51:58;18.00;94.90
12013;DHT22;6065;48.138;16.402;2023-05-29T06:54:26;18.00;94.80
12013;DHT22;6065;48.138;16.402;2023-05-29T06:56:53;18.10;94.80
12013;DHT22;6065;48.138;16.402;2023-05-29T06:59:20;18.10;94.60
12013;DHT22;6065;48.138;16.402;2023-05-29T07:01:46;18.20;94.60
12013;DHT22;6065;48.138;16.402;2023-05-29T07:04:13;18.30;94.50
12013;DHT22;6065;48.138;16.402;2023-05-29T07:06:40;18.30;94.60
12013;DHT22;6065;48.138;16.402;2023-05-29T07:09:07;18.30;94.30
12013;DHT22;6065;48.138;16.402;2023-05-29T07:11:35;18.40;93.70
12013;DHT22;6065;48.138;16.402;2023-05-29T07:14:02;18.40;93.30
12013;DHT22;6065;48.138;16.402;2023-05-29T07:16:28;18.50;93.10
12013;DHT22;6065;48.138;16.402;2023-05-29T07:18:55;18.60;92.40
12013;DHT22;6065;48.138;16.402;2023-05-29T07:21:22;18.60;92.70
12013;DHT22;6065;48.138;16.402;2023-05-29T07:23:48;18.70;92.90
12013;DHT22;6065;48.138;16.402;2023-05-29T07:26:15;18.80;92.10
12013;DHT22;6065;48.138;16.402;2023-05-29T07:28:43;18.80;92.00
12013;DHT22;6065;48.138;16.402;2023-05-29T07:31:10;19.00;92.20
12013;DHT22;6065;48.138;16.402;2023-05-29T07:33:39;19.00;91.60
12013;DHT22;6065;48.138;16.402;2023-05-29T07:36:06;19.10;91.30
12013;DHT22;6065;48.138;16.402;2023-05-29T07:38:32;19.10;91.30
12013;DHT22;6065;48.138;16.402;2023-05-29T07:40:59;19.20;91.50
12013;DHT22;6065;48.138;16.402;2023-05-29T07:43:26;19.20;91.30
12013;DHT22;6065;48.138;16.402;2023-05-29T07:45:54;19.30;90.80
12013;DHT22;6065;48.138;16.402;2023-05-29T07:48:20;19.30;90.80
12013;DHT22;6065;48.138;16.402;2023-05-29T07:50:47;19.40;90.60
12013;DHT22;6065;48.138;16.402;2023-05-29T07:53:14;19.50;90.70
12013;DHT22;6065;48.138;16.402;2023-05-29T07:55:40;19.60;90.80
12013;DHT22;6065;48.138;16.402;2023-05-29T07:58:07;19.60;90.60
12013;DHT22;6065;48.138;16.402;2023-05-29T08:00:34;19.70;90.50
12013;DHT22;6065;48.138;16.402;2023-05-29T08:03:03;19.80;90.10
12013;DHT22;6065;48.138;16.402;2023-05-29T08:05:30;19.80;89.50
12013;DHT22;6065;48.138;16.402;2023-05-29T08:07:58;19.90;89.50
12013;DHT22;6065;48.138;16.402;2023-05-29T08:10:25;19.90;89.30
12013;DHT22;6065;48.138;16.402;2023-05-29T08:12:52;20.00;89.80
12013;DHT22;6065;48.138;16.402;2023-05-29T08:15:19;20.10;88.80
12013;DHT22;6065;48.138;16.402;2023-05-29T08:17:45;20.10;88.70
12013;DHT22;6065;48.138;16.402;2023-05-29T08:20:14;20.20;89.20
12013;DHT22;6065;48.138;16.402;2023-05-29T08:22:40;20.20;89.20
12013;DHT22;6065;48.138;16.402;2023-05-29T08:25:07;20.30;88.40
12013;DHT22;6065;48.138;16.402;2023-05-29T08:27:35;20.30;87.80
12013;DHT22;6065;48.138;16.402;2023-05-29T08:30:02;20.40;88.50
12013;DHT22;6065;48.138;16.402;2023-05-29T08:32:29;20.50;88.30
12013;DHT22;6065;48.138;16.402;2023-05-29T08:34:55;20.50;88.20
12013;DHT22;6065;48.138;16.402;2023-05-29T08:37:23;20.50;89.30
12013;DHT22;6065;48.138;16.402;2023-05-29T08:39:50;20.60;88.90
12013;DHT22;6065;48.138;16.402;2023-05-29T08:42:18;20.70;88.10
12013;DHT22;6065;48.138;16.402;2023-05-29T08:44:47;20.80;90.30
12013;DHT22;6065;48.138;16.402;2023-05-29T08:47:14;20.90;90.40
12013;DHT22;6065;48.138;16.402;2023-05-29T08:49:45;21.00;90.00
12013;DHT22;6065;48.138;16.402;2023-05-29T08:52:15;21.00;89.30
12013;DHT22;6065;48.138;16.402;2023-05-29T08:54:43;21.10;89.00
12013;DHT22;6065;48.138;16.402;2023-05-29T08:57:10;21.10;88.50
12013;DHT22;6065;48.138;16.402;2023-05-29T08:59:37;21.10;88.90
12013;DHT22;6065;48.138;16.402;2023-05-29T09:02:05;21.20;88.80
12013;DHT22;6065;48.138;16.402;2023-05-29T09:04:32;21.30;89.10
12013;DHT22;6065;48.138;16.402;2023-05-29T09:06:59;21.30;88.80
12013;DHT22;6065;48.138;16.402;2023-05-29T09:09:26;21.40;88.40
12013;DHT22;6065;48.138;16.402;2023-05-29T09:11:55;21.40;89.00
12013;DHT22;6065;48.138;16.402;2023-05-29T09:14:31;21.40;89.30
12013;DHT22;6065;48.138;16.402;2023-05-29T09:16:59;21.50;89.40
12013;DHT22;6065;48.138;16.402;2023-05-29T09:19:25;21.60;89.70
12013;DHT22;6065;48.138;16.402;2023-05-29T09:21:54;21.60;89.90
12013;DHT22;6065;48.138;16.402;2023-05-29T09:24:26;21.60;90.10
12013;DHT22;6065;48.138;16.402;2023-05-29T09:26:55;21.60;90.00
12013;DHT22;6065;48.138;16.402;2023-05-29T09:29:22;21.60;88.90
12013;DHT22;6065;48.138;16.402;2023-05-29T09:31:50;21.60;87.90
12013;DHT22;6065;48.138;16.402;2023-05-29T09:34:16;21.60;88.40
12013;DHT22;6065;48.138;16.402;2023-05-29T09:36:43;21.70;88.50
12013;DHT22;6065;48.138;16.402;2023-05-29T09:39:10;21.70;88.00
12013;DHT22;6065;48.138;16.402;2023-05-29T09:41:41;21.70;87.90
12013;DHT22;6065;48.138;16.402;2023-05-29T09:44:09;21.80;90.30
12013;DHT22;6065;48.138;16.402;2023-05-29T09:46:38;21.90;90.20
12013;DHT22;6065;48.138;16.402;2023-05-29T09:49:08;21.90;88.30
12013;DHT22;6065;48.138;16.402;2023-05-29T09:51:34;22.00;87.70
12013;DHT22;6065;48.138;16.402;2023-05-29T09:54:12;22.10;88.30
12013;DHT22;6065;48.138;16.402;2023-05-29T09:56:40;22.20;87.50
12013;DHT22;6065;48.138;16.402;2023-05-29T09:59:07;22.20;88.30
12013;DHT22;6065;48.138;16.402;2023-05-29T10:01:40;22.30;87.30
12013;DHT22;6065;48.138;16.402;2023-05-29T10:04:07;22.30;87.10
12013;DHT22;6065;48.138;16.402;2023-05-29T10:06:35;22.40;87.50
12013;DHT22;6065;48.138;16.402;2023-05-29T10:09:02;22.40;89.50
12013;DHT22;6065;48.138;16.402;2023-05-29T10:11:30;22.50;87.50
12013;DHT22;6065;48.138;16.402;2023-05-29T10:13:58;22.50;87.20
12013;DHT22;6065;48.138;16.402;2023-05-29T10:16:26;22.60;87.70
12013;DHT22;6065;48.138;16.402;2023-05-29T10:18:56;22.60;87.60
12013;DHT22;6065;48.138;16.402;2023-05-29T10:21:23;22.70;86.30
12013;DHT22;6065;48.138;16.402;2023-05-29T10:23:51;22.80;86.50
12013;DHT22;6065;48.138;16.402;2023-05-29T10:26:19;22.80;86.50
12013;DHT22;6065;48.138;16.402;2023-05-29T10:28:48;22.80;87.10
12013;DHT22;6065;48.138;16.402;2023-05-29T10:31:17;22.90;87.10
12013;DHT22;6065;48.138;16.402;2023-05-29T10:33:49;22.90;87.70
12013;DHT22;6065;48.138;16.402;2023-05-29T10:36:23;23.00;87.50
12013;DHT22;6065;48.138;16.402;2023-05-29T10:38:53;23.00;86.90
12013;DHT22;6065;48.138;16.402;2023-05-29T10:41:32;23.10;86.80
12013;DHT22;6065;48.138;16.402;2023-05-29T10:47:01;23.30;87.30
12013;DHT22;6065;48.138;16.402;2023-05-29T10:49:28;23.40;82.50
12013;DHT22;6065;48.138;16.402;2023-05-29T10:51:57;23.50;82.70
12013;DHT22;6065;48.138;16.402;2023-05-29T10:54:24;23.60;84.10
12013;DHT22;6065;48.138;16.402;2023-05-29T10:56:51;23.70;85.20
12013;DHT22;6065;48.138;16.402;2023-05-29T10:59:18;23.80;83.20
12013;DHT22;6065;48.138;16.402;2023-05-29T11:01:45;23.90;79.40
12013;DHT22;6065;48.138;16.402;2023-05-29T11:04:27;23.90;79.40
12013;DHT22;6065;48.138;16.402;2023-05-29T11:06:57;24.00;83.20
12013;DHT22;6065;48.138;16.402;2023-05-29T11:09:27;24.00;80.10
12013;DHT22;6065;48.138;16.402;2023-05-29T11:12:13;24.10;79.40
12013;DHT22;6065;48.138;16.402;2023-05-29T11:14:48;24.10;80.60
12013;DHT22;6065;48.138;16.402;2023-05-29T11:17:28;24.20;81.60
12013;DHT22;6065;48.138;16.402;2023-05-29T11:19:55;24.20;80.60
12013;DHT22;6065;48.138;16.402;2023-05-29T11:22:26;24.30;82.60
12013;DHT22;6065;48.138;16.402;2023-05-29T11:24:53;24.30;82.00
12013;DHT22;6065;48.138;16.402;2023-05-29T11:27:23;24.40;81.00
12013;DHT22;6065;48.138;16.402;2023-05-29T11:29:49;24.50;80.20
12013;DHT22;6065;48.138;16.402;2023-05-29T11:32:19;24.60;79.70
12013;DHT22;6065;48.138;16.402;2023-05-29T11:34:46;24.60;79.30
12013;DHT22;6065;48.138;16.402;2023-05-29T11:37:14;24.60;80.00
12013;DHT22;6065;48.138;16.402;2023-05-29T11:39:42;24.70;79.90
12013;DHT22;6065;48.138;16.402;2023-05-29T11:42:09;24.80;80.20
12013;DHT22;6065;48.138;16.402;2023-05-29T11:44:35;24.80;81.80
12013;DHT22;6065;48.138;16.402;2023-05-29T11:47:02;24.90;80.50
12013;DHT22;6065;48.138;16.402;2023-05-29T11:49:29;24.90;79.60
12013;DHT22;6065;48.138;16.402;2023-05-29T11:52:09;25.00;78.20
12013;DHT22;6065;48.138;16.402;2023-05-29T11:54:36;25.00;78.00
12013;DHT22;6065;48.138;16.402;2023-05-29T11:57:04;25.10;78.30
12013;DHT22;6065;48.138;16.402;2023-05-29T11:59:31;25.10;82.50
12013;DHT22;6065;48.138;16.402;2023-05-29T12:01:58;25.20;81.90
12013;DHT22;6065;48.138;16.402;2023-05-29T12:04:25;25.20;77.80
12013;DHT22;6065;48.138;16.402;2023-05-29T12:06:51;25.30;76.60
12013;DHT22;6065;48.138;16.402;2023-05-29T12:09:25;25.30;74.90
12013;DHT22;6065;48.138;16.402;2023-05-29T12:11:53;25.30;74.60
12013;DHT22;6065;48.138;16.402;2023-05-29T12:14:21;25.30;74.50
12013;DHT22;6065;48.138;16.402;2023-05-29T12:16:48;25.40;74.60
12013;DHT22;6065;48.138;16.402;2023-05-29T12:19:14;25.30;74.60
12013;DHT22;6065;48.138;16.402;2023-05-29T12:21:41;25.40;74.10
12013;DHT22;6065;48.138;16.402;2023-05-29T12:24:08;25.40;73.10
12013;DHT22;6065;48.138;16.402;2023-05-29T12:26:35;25.40;73.20
12013;DHT22;6065;48.138;16.402;2023-05-29T12:29:02;25.50;73.80
12013;DHT22;6065;48.138;16.402;2023-05-29T12:31:31;25.50;74.40
12013;DHT22;6065;48.138;16.402;2023-05-29T12:34:01;25.50;72.90
12013;DHT22;6065;48.138;16.402;2023-05-29T12:36:28;25.60;72.10
12013;DHT22;6065;48.138;16.402;2023-05-29T12:38:55;25.60;71.50
12013;DHT22;6065;48.138;16.402;2023-05-29T12:41:24;25.60;72.20
12013;DHT22;6065;48.138;16.402;2023-05-29T12:43:52;25.60;72.00
12013;DHT22;6065;48.138;16.402;2023-05-29T12:46:19;25.70;71.10
12013;DHT22;6065;48.138;16.402;2023-05-29T12:48:47;25.80;71.00
12013;DHT22;6065;48.138;16.402;2023-05-29T12:51:15;25.80;71.70
12013;DHT22;6065;48.138;16.402;2023-05-29T12:53:41;25.80;71.60
12013;DHT22;6065;48.138;16.402;2023-05-29T12:56:08;25.80;71.70
12013;DHT22;6065;48.138;16.402;2023-05-29T12:58:35;25.90;72.50
12013;DHT22;6065;48.138;16.402;2023-05-29T13:01:01;25.90;71.60
12013;DHT22;6065;48.138;16.402;2023-05-29T13:03:28;25.90;71.40
12013;DHT22;6065;48.138;16.402;2023-05-29T13:05:56;26.00;71.40
12013;DHT22;6065;48.138;16.402;2023-05-29T13:08:23;26.00;71.00
12013;DHT22;6065;48.138;16.402;2023-05-29T13:10:50;26.00;70.50
12013;DHT22;6065;48.138;16.402;2023-05-29T13:13:16;26.10;71.30
12013;DHT22;6065;48.138;16.402;2023-05-29T13:15:43;26.10;71.70
12013;DHT22;6065;48.138;16.402;2023-05-29T13:18:10;26.10;71.20
12013;DHT22;6065;48.138;16.402;2023-05-29T13:20:37;26.20;70.70
12013;DHT22;6065;48.138;16.402;2023-05-29T13:23:05;26.20;70.80
12013;DHT22;6065;48.138;16.402;2023-05-29T13:25:32;26.20;69.80
12013;DHT22;6065;48.138;16.402;2023-05-29T13:27:59;26.20;69.50
12013;DHT22;6065;48.138;16.402;2023-05-29T13:30:25;26.20;69.30
12013;DHT22;6065;48.138;16.402;2023-05-29T13:32:52;26.20;68.50
12013;DHT22;6065;48.138;16.402;2023-05-29T13:35:19;26.20;68.20
12013;DHT22;6065;48.138;16.402;2023-05-29T13:37:46;26.30;68.20
12013;DHT22;6065;48.138;16.402;2023-05-29T13:40:14;26.30;67.60
12013;DHT22;6065;48.138;16.402;2023-05-29T13:42:41;26.30;67.80
12013;DHT22;6065;48.138;16.402;2023-05-29T13:45:08;26.30;67.30
12013;DHT22;6065;48.138;16.402;2023-05-29T13:47:35;26.30;67.00
12013;DHT22;6065;48.138;16.402;2023-05-29T13:50:02;26.30;69.10
12013;DHT22;6065;48.138;16.402;2023-05-29T13:52:28;26.30;68.20
12013;DHT22;6065;48.138;16.402;2023-05-29T13:54:55;26.30;67.80
12013;DHT22;6065;48.138;16.402;2023-05-29T13:57:24;26.30;67.30
12013;DHT22;6065;48.138;16.402;2023-05-29T13:59:51;26.30;67.50
12013;DHT22;6065;48.138;16.402;2023-05-29T14:02:18;26.30;68.80
12013;DHT22;6065;48.138;16.402;2023-05-29T14:04:44;26.40;69.40
12013;DHT22;6065;48.138;16.402;2023-05-29T14:07:11;26.40;69.40
12013;DHT22;6065;48.138;16.402;2023-05-29T14:09:38;26.40;68.00
12013;DHT22;6065;48.138;16.402;2023-05-29T14:12:06;26.40;66.90
12013;DHT22;6065;48.138;16.402;2023-05-29T14:14:34;26.50;66.20
12013;DHT22;6065;48.138;16.402;2023-05-29T14:17:01;26.50;65.00
12013;DHT22;6065;48.138;16.402;2023-05-29T14:19:30;26.40;65.20
12013;DHT22;6065;48.138;16.402;2023-05-29T14:21:57;26.40;63.70
12013;DHT22;6065;48.138;16.402;2023-05-29T14:24:25;26.30;63.80
12013;DHT22;6065;48.138;16.402;2023-05-29T14:26:51;26.30;63.50
12013;DHT22;6065;48.138;16.402;2023-05-29T14:29:18;26.20;63.60
12013;DHT22;6065;48.138;16.402;2023-05-29T14:31:46;26.20;66.10
12013;DHT22;6065;48.138;16.402;2023-05-29T14:34:13;26.20;67.30
12013;DHT22;6065;48.138;16.402;2023-05-29T14:36:40;26.20;66.00
12013;DHT22;6065;48.138;16.402;2023-05-29T14:39:09;26.30;66.30
12013;DHT22;6065;48.138;16.402;2023-05-29T14:41:37;26.30;65.00
12013;DHT22;6065;48.138;16.402;2023-05-29T14:44:03;26.30;65.20
12013;DHT22;6065;48.138;16.402;2023-05-29T14:46:30;26.30;64.80
12013;DHT22;6065;48.138;16.402;2023-05-29T14:48:59;26.30;64.10
12013;DHT22;6065;48.138;16.402;2023-05-29T14:51:26;26.30;63.20
12013;DHT22;6065;48.138;16.402;2023-05-29T14:53:52;26.30;63.10
12013;DHT22;6065;48.138;16.402;2023-05-29T14:56:19;26.30;63.40
12013;DHT22;6065;48.138;16.402;2023-05-29T14:58:46;26.30;63.80
12013;DHT22;6065;48.138;16.402;2023-05-29T15:01:14;26.30;64.10
12013;DHT22;6065;48.138;16.402;2023-05-29T15:03:40;26.30;65.60
12013;DHT22;6065;48.138;16.402;2023-05-29T15:06:09;26.20;65.90
12013;DHT22;6065;48.138;16.402;2023-05-29T15:08:37;26.20;63.50
12013;DHT22;6065;48.138;16.402;2023-05-29T15:11:04;26.20;60.50
12013;DHT22;6065;48.138;16.402;2023-05-29T15:13:31;26.10;60.90
12013;DHT22;6065;48.138;16.402;2023-05-29T15:15:58;26.10;62.50
12013;DHT22;6065;48.138;16.402;2023-05-29T15:18:25;26.10;63.40
12013;DHT22;6065;48.138;16.402;2023-05-29T15:20:52;26.10;63.50
12013;DHT22;6065;48.138;16.402;2023-05-29T15:23:21;26.00;63.60
12013;DHT22;6065;48.138;16.402;2023-05-29T15:25:48;26.00;63.80
12013;DHT22;6065;48.138;16.402;2023-05-29T15:28:15;26.00;63.30
12013;DHT22;6065;48.138;16.402;2023-05-29T15:30:42;25.90;61.40
12013;DHT22;6065;48.138;16.402;2023-05-29T15:33:08;25.90;61.20
12013;DHT22;6065;48.138;16.402;2023-05-29T15:35:36;25.80;61.80